sensor_id;sensor_type;location;lat;lon;timestamp;P1;durP1;ratioP1;P2;durP2;ratioP2
19887;SDS011;10106;51.332;12.336;2023-01-19T00:02:14;10.90;;;4.60;;
19887;SDS011;10106;51.332;12.336;2023-01-19T00:04:40;11.25;;;5.13;;
19887;SDS011;10106;51.332;12.336;2023-01-19T00:07:05;13.17;;;5.10;;
19887;SDS011;10106;51.332;12.336;2023-01-19T00:09:31;11.67;;;5.07;;
19887;SDS011;10106;51.332;12.336;2023-01-19T00:11:57;9.40;;;4.85;;
19887;SDS011;10106;51.332;12.336;2023-01-19T00:14:24;7.82;;;4.88;;
19887;SDS011;10106;51.332;12.336;2023-01-19T00:16:49;16.00;;;5.20;;
19887;SDS011;10106;51.332;12.336;2023-01-19T00:19:15;11.13;;;4.77;;
19887;SDS011;10106;51.332;12.336;2023-01-19T00:21:41;11.73;;;5.43;;
19887;SDS011;10106;51.332;12.336;2023-01-19T00:24:06;9.20;;;5.10;;
19887;SDS011;10106;51.332;12.336;2023-01-19T00:26:32;9.55;;;5.32;;
19887;SDS011;10106;51.332;12.336;2023-01-19T00:28:58;10.20;;;5.67;;
19887;SDS011;10106;51.332;12.336;2023-01-19T00:31:23;11.40;;;5.32;;
19887;SDS011;10106;51.332;12.336;2023-01-19T00:33:49;11.53;;;5.10;;
19887;SDS011;10106;51.332;12.336;2023-01-19T00:36:16;11.88;;;5.22;;
19887;SDS011;10106;51.332;12.336;2023-01-19T00:38:42;14.57;;;5.60;;
19887;SDS011;10106;51.332;12.336;2023-01-19T00:41:07;9.13;;;5.25;;
19887;SDS011;10106;51.332;12.336;2023-01-19T00:43:33;10.60;;;5.43;;
19887;SDS011;10106;51.332;12.336;2023-01-19T00:45:59;9.50;;;5.15;;
19887;SDS011;10106;51.332;12.336;2023-01-19T00:48:24;12.00;;;5.82;;
19887;SDS011;10106;51.332;12.336;2023-01-19T00:50:50;11.40;;;5.40;;
19887;SDS011;10106;51.332;12.336;2023-01-19T00:53:16;9.35;;;4.60;;
19887;SDS011;10106;51.332;12.336;2023-01-19T00:55:41;13.40;;;5.17;;
19887;SDS011;10106;51.332;12.336;2023-01-19T00:58:07;11.38;;;5.80;;
19887;SDS011;10106;51.332;12.336;2023-01-19T01:00:33;10.15;;;4.93;;
19887;SDS011;10106;51.332;12.336;2023-01-19T01:02:59;10.63;;;5.17;;
19887;SDS011;10106;51.332;12.336;2023-01-19T01:05:25;12.25;;;5.35;;
19887;SDS011;10106;51.332;12.336;2023-01-19T01:07:50;9.47;;;5.00;;
19887;SDS011;10106;51.332;12.336;2023-01-19T01:10:20;7.95;;;5.00;;
19887;SDS011;10106;51.332;12.336;2023-01-19T01:12:47;15.77;;;5.95;;
19887;SDS011;10106;51.332;12.336;2023-01-19T01:15:14;11.47;;;5.40;;
19887;SDS011;10106;51.332;12.336;2023-01-19T01:17:41;8.05;;;4.75;;
19887;SDS011;10106;51.332;12.336;2023-01-19T01:20:14;13.70;;;5.80;;
19887;SDS011;10106;51.332;12.336;2023-01-19T01:22:45;14.85;;;5.13;;
19887;SDS011;10106;51.332;12.336;2023-01-19T01:25:15;9.85;;;4.60;;
19887;SDS011;10106;51.332;12.336;2023-01-19T01:27:43;10.38;;;4.93;;
19887;SDS011;10106;51.332;12.336;2023-01-19T01:30:10;10.23;;;5.05;;
19887;SDS011;10106;51.332;12.336;2023-01-19T01:32:37;7.87;;;4.40;;
19887;SDS011;10106;51.332;12.336;2023-01-19T01:35:03;9.75;;;4.82;;
19887;SDS011;10106;51.332;12.336;2023-01-19T01:37:29;7.95;;;4.90;;
19887;SDS011;10106;51.332;12.336;2023-01-19T01:39:54;9.00;;;5.30;;
19887;SDS011;10106;51.332;12.336;2023-01-19T01:42:24;8.25;;;4.95;;
19887;SDS011;10106;51.332;12.336;2023-01-19T01:44:52;10.82;;;4.60;;
19887;SDS011;10106;51.332;12.336;2023-01-19T01:50:21;10.57;;;5.30;;
19887;SDS011;10106;51.332;12.336;2023-01-19T01:52:59;8.63;;;4.00;;
19887;SDS011;10106;51.332;12.336;2023-01-19T01:55:30;8.57;;;3.58;;
19887;SDS011;10106;51.332;12.336;2023-01-19T01:57:59;6.88;;;4.18;;
19887;SDS011;10106;51.332;12.336;2023-01-19T02:00:28;7.78;;;4.32;;
19887;SDS011;10106;51.332;12.336;2023-01-19T02:03:14;15.13;;;4.00;;
19887;SDS011;10106;51.332;12.336;2023-01-19T02:05:40;11.05;;;4.53;;
19887;SDS011;10106;51.332;12.336;2023-01-19T02:08:22;8.13;;;3.80;;
19887;SDS011;10106;51.332;12.336;2023-01-19T02:11:15;9.43;;;4.00;;
19887;SDS011;10106;51.332;12.336;2023-01-19T02:13:59;7.45;;;3.83;;
19887;SDS011;10106;51.332;12.336;2023-01-19T02:16:28;7.63;;;3.80;;
19887;SDS011;10106;51.332;12.336;2023-01-19T02:18:54;9.05;;;4.47;;
19887;SDS011;10106;51.332;12.336;2023-01-19T02:24:13;7.53;;;4.15;;
19887;SDS011;10106;51.332;12.336;2023-01-19T02:26:40;9.63;;;4.10;;
19887;SDS011;10106;51.332;12.336;2023-01-19T02:29:10;9.40;;;4.10;;
19887;SDS011;10106;51.332;12.336;2023-01-19T02:31:38;8.70;;;4.32;;
19887;SDS011;10106;51.332;12.336;2023-01-19T02:34:05;7.43;;;4.55;;
19887;SDS011;10106;51.332;12.336;2023-01-19T02:36:37;6.40;;;3.60;;
19887;SDS011;10106;51.332;12.336;2023-01-19T02:39:04;7.95;;;4.32;;
19887;SDS011;10106;51.332;12.336;2023-01-19T02:41:33;9.60;;;4.60;;
19887;SDS011;10106;51.332;12.336;2023-01-19T02:44:04;6.03;;;3.85;;
19887;SDS011;10106;51.332;12.336;2023-01-19T02:46:32;7.65;;;4.15;;
19887;SDS011;10106;51.332;12.336;2023-01-19T02:48:58;9.95;;;4.18;;
19887;SDS011;10106;51.332;12.336;2023-01-19T02:51:24;8.05;;;4.22;;
19887;SDS011;10106;51.332;12.336;2023-01-19T02:53:57;9.75;;;3.92;;
19887;SDS011;10106;51.332;12.336;2023-01-19T02:59:32;12.73;;;4.00;;
19887;SDS011;10106;51.332;12.336;2023-01-19T03:07:48;6.70;;;4.03;;
19887;SDS011;10106;51.332;12.336;2023-01-19T03:10:30;9.25;;;3.95;;
19887;SDS011;10106;51.332;12.336;2023-01-19T03:13:09;6.60;;;3.90;;
19887;SDS011;10106;51.332;12.336;2023-01-19T03:15:51;7.28;;;3.80;;
19887;SDS011;10106;51.332;12.336;2023-01-19T03:18:40;8.52;;;4.30;;
19887;SDS011;10106;51.332;12.336;2023-01-19T03:21:09;6.43;;;3.43;;
19887;SDS011;10106;51.332;12.336;2023-01-19T03:23:37;8.25;;;3.67;;
19887;SDS011;10106;51.332;12.336;2023-01-19T03:26:07;6.90;;;2.97;;
19887;SDS011;10106;51.332;12.336;2023-01-19T03:28:36;9.25;;;3.60;;
19887;SDS011;10106;51.332;12.336;2023-01-19T03:31:06;5.57;;;3.03;;
19887;SDS011;10106;51.332;12.336;2023-01-19T03:33:38;7.30;;;3.30;;
19887;SDS011;10106;51.332;12.336;2023-01-19T03:36:08;5.95;;;2.80;;
19887;SDS011;10106;51.332;12.336;2023-01-19T03:38:38;6.07;;;2.90;;
19887;SDS011;10106;51.332;12.336;2023-01-19T03:41:07;6.97;;;3.45;;
19887;SDS011;10106;51.332;12.336;2023-01-19T03:43:36;5.25;;;3.20;;
19887;SDS011;10106;51.332;12.336;2023-01-19T03:46:04;3.05;;;2.60;;
19887;SDS011;10106;51.332;12.336;2023-01-19T03:48:31;4.78;;;2.90;;
19887;SDS011;10106;51.332;12.336;2023-01-19T03:51:01;7.97;;;2.70;;
19887;SDS011;10106;51.332;12.336;2023-01-19T03:53:29;8.13;;;2.95;;
19887;SDS011;10106;51.332;12.336;2023-01-19T03:55:54;4.17;;;2.60;;
19887;SDS011;10106;51.332;12.336;2023-01-19T03:58:20;4.67;;;2.73;;
19887;SDS011;10106;51.332;12.336;2023-01-19T04:00:46;6.38;;;2.80;;
19887;SDS011;10106;51.332;12.336;2023-01-19T04:03:13;8.80;;;3.20;;
19887;SDS011;10106;51.332;12.336;2023-01-19T04:05:39;6.32;;;3.13;;
19887;SDS011;10106;51.332;12.336;2023-01-19T04:08:06;5.90;;;2.63;;
19887;SDS011;10106;51.332;12.336;2023-01-19T04:10:32;3.05;;;2.65;;
19887;SDS011;10106;51.332;12.336;2023-01-19T04:12:58;4.60;;;2.90;;
19887;SDS011;10106;51.332;12.336;2023-01-19T04:15:27;5.78;;;3.20;;
19887;SDS011;10106;51.332;12.336;2023-01-19T04:17:53;5.60;;;2.88;;
19887;SDS011;10106;51.332;12.336;2023-01-19T04:20:21;6.60;;;2.90;;
19887;SDS011;10106;51.332;12.336;2023-01-19T04:22:47;3.70;;;2.50;;
19887;SDS011;10106;51.332;12.336;2023-01-19T04:25:13;7.60;;;3.33;;
19887;SDS011;10106;51.332;12.336;2023-01-19T04:27:39;6.90;;;3.20;;
19887;SDS011;10106;51.332;12.336;2023-01-19T04:30:06;8.10;;;3.40;;
19887;SDS011;10106;51.332;12.336;2023-01-19T04:32:32;4.25;;;3.30;;
19887;SDS011;10106;51.332;12.336;2023-01-19T04:34:58;6.87;;;3.20;;
19887;SDS011;10106;51.332;12.336;2023-01-19T04:37:23;8.85;;;3.70;;
19887;SDS011;10106;51.332;12.336;2023-01-19T04:39:49;4.90;;;3.37;;
19887;SDS011;10106;51.332;12.336;2023-01-19T04:42:15;7.28;;;3.40;;
19887;SDS011;10106;51.332;12.336;2023-01-19T04:44:41;6.10;;;2.80;;
19887;SDS011;10106;51.332;12.336;2023-01-19T04:47:06;6.82;;;3.65;;
19887;SDS011;10106;51.332;12.336;2023-01-19T04:49:32;5.72;;;3.55;;
19887;SDS011;10106;51.332;12.336;2023-01-19T04:52:01;5.43;;;3.30;;
19887;SDS011;10106;51.332;12.336;2023-01-19T04:54:28;7.38;;;3.33;;
19887;SDS011;10106;51.332;12.336;2023-01-19T04:56:54;8.52;;;3.72;;
19887;SDS011;10106;51.332;12.336;2023-01-19T04:59:20;7.40;;;3.60;;
19887;SDS011;10106;51.332;12.336;2023-01-19T05:01:45;6.72;;;3.40;;
19887;SDS011;10106;51.332;12.336;2023-01-19T05:04:11;8.47;;;3.50;;
19887;SDS011;10106;51.332;12.336;2023-01-19T05:06:37;6.90;;;3.70;;
19887;SDS011;10106;51.332;12.336;2023-01-19T05:09:02;9.33;;;3.60;;
19887;SDS011;10106;51.332;12.336;2023-01-19T05:11:28;7.57;;;3.88;;
19887;SDS011;10106;51.332;12.336;2023-01-19T05:13:54;6.53;;;3.40;;
19887;SDS011;10106;51.332;12.336;2023-01-19T05:16:19;9.48;;;4.10;;
19887;SDS011;10106;51.332;12.336;2023-01-19T05:18:45;7.60;;;3.80;;
19887;SDS011;10106;51.332;12.336;2023-01-19T05:21:11;8.52;;;4.20;;
19887;SDS011;10106;51.332;12.336;2023-01-19T05:23:36;8.03;;;3.77;;
19887;SDS011;10106;51.332;12.336;2023-01-19T05:26:02;6.35;;;3.83;;
19887;SDS011;10106;51.332;12.336;2023-01-19T05:28:28;8.20;;;4.30;;
19887;SDS011;10106;51.332;12.336;2023-01-19T05:30:55;8.50;;;4.25;;
19887;SDS011;10106;51.332;12.336;2023-01-19T05:33:21;9.93;;;4.65;;
19887;SDS011;10106;51.332;12.336;2023-01-19T05:35:50;7.20;;;4.85;;
19887;SDS011;10106;51.332;12.336;2023-01-19T05:38:17;7.65;;;4.57;;
19887;SDS011;10106;51.332;12.336;2023-01-19T05:40:43;9.88;;;4.75;;
19887;SDS011;10106;51.332;12.336;2023-01-19T05:43:09;10.55;;;5.05;;
19887;SDS011;10106;51.332;12.336;2023-01-19T05:45:35;10.20;;;5.25;;
19887;SDS011;10106;51.332;12.336;2023-01-19T05:48:03;7.82;;;4.45;;
19887;SDS011;10106;51.332;12.336;2023-01-19T05:50:29;12.65;;;5.38;;
19887;SDS011;10106;51.332;12.336;2023-01-19T05:52:55;10.77;;;5.00;;
19887;SDS011;10106;51.332;12.336;2023-01-19T05:55:21;10.43;;;4.65;;
19887;SDS011;10106;51.332;12.336;2023-01-19T05:57:47;11.80;;;5.20;;
19887;SDS011;10106;51.332;12.336;2023-01-19T06:07:51;9.25;;;5.35;;
19887;SDS011;10106;51.332;12.336;2023-01-19T06:10:21;10.15;;;5.90;;
19887;SDS011;10106;51.332;12.336;2023-01-19T06:12:47;10.97;;;5.70;;
19887;SDS011;10106;51.332;12.336;2023-01-19T06:15:13;11.32;;;5.78;;
19887;SDS011;10106;51.332;12.336;2023-01-19T06:17:39;12.02;;;5.57;;
19887;SDS011;10106;51.332;12.336;2023-01-19T06:20:05;9.70;;;5.43;;
19887;SDS011;10106;51.332;12.336;2023-01-19T06:22:31;12.85;;;5.25;;
19887;SDS011;10106;51.332;12.336;2023-01-19T06:24:57;9.23;;;5.20;;
19887;SDS011;10106;51.332;12.336;2023-01-19T06:27:23;9.90;;;5.53;;
19887;SDS011;10106;51.332;12.336;2023-01-19T06:29:48;10.07;;;5.30;;
19887;SDS011;10106;51.332;12.336;2023-01-19T06:32:14;10.32;;;5.53;;
19887;SDS011;10106;51.332;12.336;2023-01-19T06:34:40;12.00;;;5.23;;
19887;SDS011;10106;51.332;12.336;2023-01-19T06:37:07;9.20;;;5.33;;
19887;SDS011;10106;51.332;12.336;2023-01-19T06:39:35;9.30;;;5.60;;
19887;SDS011;10106;51.332;12.336;2023-01-19T06:42:02;10.50;;;6.20;;
19887;SDS011;10106;51.332;12.336;2023-01-19T06:44:27;12.32;;;5.78;;
19887;SDS011;10106;51.332;12.336;2023-01-19T06:46:53;12.40;;;6.22;;
19887;SDS011;10106;51.332;12.336;2023-01-19T06:49:19;12.10;;;6.50;;
19887;SDS011;10106;51.332;12.336;2023-01-19T06:51:44;14.37;;;6.50;;
19887;SDS011;10106;51.332;12.336;2023-01-19T06:54:10;12.70;;;6.25;;
19887;SDS011;10106;51.332;12.336;2023-01-19T06:56:36;11.87;;;6.60;;
19887;SDS011;10106;51.332;12.336;2023-01-19T06:59:01;16.00;;;7.15;;
19887;SDS011;10106;51.332;12.336;2023-01-19T07:01:27;12.07;;;6.17;;
19887;SDS011;10106;51.332;12.336;2023-01-19T07:03:52;12.05;;;6.82;;
19887;SDS011;10106;51.332;12.336;2023-01-19T07:06:21;14.97;;;6.83;;
19887;SDS011;10106;51.332;12.336;2023-01-19T07:08:47;13.25;;;7.80;;
19887;SDS011;10106;51.332;12.336;2023-01-19T07:11:12;14.43;;;7.50;;
19887;SDS011;10106;51.332;12.336;2023-01-19T07:13:38;11.38;;;6.30;;
19887;SDS011;10106;51.332;12.336;2023-01-19T07:16:08;14.77;;;7.35;;
19887;SDS011;10106;51.332;12.336;2023-01-19T07:18:36;14.68;;;7.78;;
19887;SDS011;10106;51.332;12.336;2023-01-19T07:21:03;14.75;;;7.07;;
19887;SDS011;10106;51.332;12.336;2023-01-19T07:23:29;15.73;;;7.20;;
19887;SDS011;10106;51.332;12.336;2023-01-19T07:25:56;12.57;;;7.15;;
19887;SDS011;10106;51.332;12.336;2023-01-19T07:28:22;12.63;;;6.57;;
19887;SDS011;10106;51.332;12.336;2023-01-19T07:30:51;12.82;;;7.15;;
19887;SDS011;10106;51.332;12.336;2023-01-19T07:33:18;17.42;;;7.35;;
19887;SDS011;10106;51.332;12.336;2023-01-19T07:35:46;18.17;;;7.47;;
19887;SDS011;10106;51.332;12.336;2023-01-19T07:38:13;11.80;;;6.97;;
19887;SDS011;10106;51.332;12.336;2023-01-19T07:40:39;14.43;;;6.93;;
19887;SDS011;10106;51.332;12.336;2023-01-19T07:43:04;16.53;;;6.90;;
19887;SDS011;10106;51.332;12.336;2023-01-19T07:45:30;16.30;;;7.35;;
19887;SDS011;10106;51.332;12.336;2023-01-19T07:47:56;13.60;;;7.67;;
19887;SDS011;10106;51.332;12.336;2023-01-19T07:50:21;16.85;;;7.22;;
19887;SDS011;10106;51.332;12.336;2023-01-19T07:52:49;15.60;;;7.18;;
19887;SDS011;10106;51.332;12.336;2023-01-19T07:55:17;12.23;;;6.85;;
19887;SDS011;10106;51.332;12.336;2023-01-19T07:57:46;17.38;;;6.70;;
19887;SDS011;10106;51.332;12.336;2023-01-19T08:00:14;11.68;;;7.30;;
19887;SDS011;10106;51.332;12.336;2023-01-19T08:02:43;12.13;;;7.00;;
19887;SDS011;10106;51.332;12.336;2023-01-19T08:05:09;14.27;;;7.40;;
19887;SDS011;10106;51.332;12.336;2023-01-19T08:07:34;11.20;;;6.40;;
19887;SDS011;10106;51.332;12.336;2023-01-19T08:10:00;14.90;;;7.43;;
19887;SDS011;10106;51.332;12.336;2023-01-19T08:12:26;11.00;;;6.00;;
19887;SDS011;10106;51.332;12.336;2023-01-19T08:14:51;8.93;;;5.65;;
19887;SDS011;10106;51.332;12.336;2023-01-19T08:17:17;9.25;;;5.53;;
19887;SDS011;10106;51.332;12.336;2023-01-19T08:19:43;10.43;;;5.68;;
19887;SDS011;10106;51.332;12.336;2023-01-19T08:22:09;8.70;;;4.70;;
19887;SDS011;10106;51.332;12.336;2023-01-19T08:24:34;6.10;;;4.00;;
19887;SDS011;10106;51.332;12.336;2023-01-19T08:27:01;8.20;;;4.07;;
19887;SDS011;10106;51.332;12.336;2023-01-19T08:29:28;4.47;;;3.53;;
19887;SDS011;10106;51.332;12.336;2023-01-19T08:31:57;6.67;;;4.17;;
19887;SDS011;10106;51.332;12.336;2023-01-19T08:34:25;8.30;;;4.73;;
19887;SDS011;10106;51.332;12.336;2023-01-19T08:36:51;5.13;;;3.50;;
19887;SDS011;10106;51.332;12.336;2023-01-19T08:39:17;6.63;;;2.87;;
19887;SDS011;10106;51.332;12.336;2023-01-19T08:41:43;4.80;;;3.90;;
19887;SDS011;10106;51.332;12.336;2023-01-19T08:44:08;13.33;;;4.70;;
19887;SDS011;10106;51.332;12.336;2023-01-19T08:46:34;6.90;;;4.40;;
19887;SDS011;10106;51.332;12.336;2023-01-19T08:49:00;10.10;;;3.60;;
19887;SDS011;10106;51.332;12.336;2023-01-19T08:51:26;17.37;;;5.50;;
19887;SDS011;10106;51.332;12.336;2023-01-19T08:53:51;6.17;;;3.27;;
19887;SDS011;10106;51.332;12.336;2023-01-19T08:56:17;3.50;;;3.07;;
19887;SDS011;10106;51.332;12.336;2023-01-19T08:58:43;8.87;;;4.20;;
19887;SDS011;10106;51.332;12.336;2023-01-19T09:01:11;5.40;;;4.17;;
19887;SDS011;10106;51.332;12.336;2023-01-19T09:03:44;5.13;;;3.37;;
19887;SDS011;10106;51.332;12.336;2023-01-19T09:06:11;6.40;;;3.80;;
19887;SDS011;10106;51.332;12.336;2023-01-19T09:08:39;10.57;;;4.83;;
19887;SDS011;10106;51.332;12.336;2023-01-19T09:11:08;10.70;;;5.23;;
19887;SDS011;10106;51.332;12.336;2023-01-19T09:13:37;5.53;;;3.67;;
19887;SDS011;10106;51.332;12.336;2023-01-19T09:16:04;7.57;;;4.37;;
19887;SDS011;10106;51.332;12.336;2023-01-19T09:18:31;10.10;;;4.50;;
19887;SDS011;10106;51.332;12.336;2023-01-19T09:20:58;13.90;;;5.70;;
19887;SDS011;10106;51.332;12.336;2023-01-19T09:23:24;19.73;;;4.50;;
19887;SDS011;10106;51.332;12.336;2023-01-19T09:25:55;4.37;;;3.97;;
19887;SDS011;10106;51.332;12.336;2023-01-19T09:28:22;5.50;;;3.50;;
19887;SDS011;10106;51.332;12.336;2023-01-19T09:30:48;9.00;;;4.87;;
19887;SDS011;10106;51.332;12.336;2023-01-19T09:33:14;9.20;;;4.83;;
19887;SDS011;10106;51.332;12.336;2023-01-19T09:35:41;11.03;;;5.10;;
19887;SDS011;10106;51.332;12.336;2023-01-19T09:38:08;8.60;;;4.00;;
19887;SDS011;10106;51.332;12.336;2023-01-19T09:40:46;9.50;;;5.07;;
19887;SDS011;10106;51.332;12.336;2023-01-19T09:45:49;7.27;;;4.73;;
19887;SDS011;10106;51.332;12.336;2023-01-19T09:50:53;7.63;;;3.90;;
19887;SDS011;10106;51.332;12.336;2023-01-19T09:56:10;8.50;;;3.60;;
19887;SDS011;10106;51.332;12.336;2023-01-19T09:58:38;7.17;;;4.80;;
19887;SDS011;10106;51.332;12.336;2023-01-19T10:01:08;14.83;;;6.30;;
19887;SDS011;10106;51.332;12.336;2023-01-19T10:03:59;7.67;;;5.33;;
19887;SDS011;10106;51.332;12.336;2023-01-19T10:06:58;8.80;;;4.67;;
19887;SDS011;10106;51.332;12.336;2023-01-19T10:09:34;8.07;;;4.23;;
19887;SDS011;10106;51.332;12.336;2023-01-19T10:12:14;9.67;;;4.40;;
19887;SDS011;10106;51.332;12.336;2023-01-19T10:20:18;7.33;;;4.13;;
19887;SDS011;10106;51.332;12.336;2023-01-19T10:22:51;7.90;;;4.20;;
19887;SDS011;10106;51.332;12.336;2023-01-19T10:25:19;13.50;;;4.70;;
19887;SDS011;10106;51.332;12.336;2023-01-19T10:27:49;7.07;;;4.10;;
19887;SDS011;10106;51.332;12.336;2023-01-19T10:30:17;9.20;;;4.30;;
19887;SDS011;10106;51.332;12.336;2023-01-19T10:32:49;7.83;;;4.50;;
19887;SDS011;10106;51.332;12.336;2023-01-19T10:35:17;6.77;;;3.60;;
19887;SDS011;10106;51.332;12.336;2023-01-19T10:37:58;4.67;;;3.50;;
19887;SDS011;10106;51.332;12.336;2023-01-19T10:40:32;5.30;;;4.27;;
19887;SDS011;10106;51.332;12.336;2023-01-19T10:48:52;7.50;;;4.93;;
19887;SDS011;10106;51.332;12.336;2023-01-19T10:51:19;5.97;;;3.50;;
19887;SDS011;10106;51.332;12.336;2023-01-19T10:56:37;6.60;;;3.87;;
19887;SDS011;10106;51.332;12.336;2023-01-19T10:59:05;8.00;;;3.70;;
19887;SDS011;10106;51.332;12.336;2023-01-19T11:01:31;4.30;;;3.90;;
19887;SDS011;10106;51.332;12.336;2023-01-19T11:04:01;7.73;;;4.63;;
19887;SDS011;10106;51.332;12.336;2023-01-19T11:06:44;7.63;;;3.83;;
19887;SDS011;10106;51.332;12.336;2023-01-19T11:09:11;5.60;;;2.60;;
19887;SDS011;10106;51.332;12.336;2023-01-19T11:11:42;5.30;;;3.77;;
19887;SDS011;10106;51.332;12.336;2023-01-19T11:14:11;14.73;;;4.97;;
19887;SDS011;10106;51.332;12.336;2023-01-19T11:16:38;6.10;;;3.10;;
19887;SDS011;10106;51.332;12.336;2023-01-19T11:19:05;9.67;;;4.07;;
19887;SDS011;10106;51.332;12.336;2023-01-19T11:24:45;7.43;;;4.60;;
19887;SDS011;10106;51.332;12.336;2023-01-19T11:27:15;8.20;;;4.23;;
19887;SDS011;10106;51.332;12.336;2023-01-19T11:29:59;13.13;;;4.17;;
19887;SDS011;10106;51.332;12.336;2023-01-19T11:32:34;7.30;;;3.63;;
19887;SDS011;10106;51.332;12.336;2023-01-19T11:35:01;9.17;;;4.80;;
19887;SDS011;10106;51.332;12.336;2023-01-19T11:37:47;10.20;;;3.90;;
19887;SDS011;10106;51.332;12.336;2023-01-19T11:40:14;8.63;;;4.30;;
19887;SDS011;10106;51.332;12.336;2023-01-19T11:42:40;6.03;;;4.33;;
19887;SDS011;10106;51.332;12.336;2023-01-19T11:45:12;8.20;;;4.33;;
19887;SDS011;10106;51.332;12.336;2023-01-19T11:47:42;5.30;;;4.47;;
19887;SDS011;10106;51.332;12.336;2023-01-19T11:50:24;7.00;;;3.40;;
19887;SDS011;10106;51.332;12.336;2023-01-19T11:53:13;6.53;;;3.83;;
19887;SDS011;10106;51.332;12.336;2023-01-19T11:55:53;4.60;;;2.40;;
19887;SDS011;10106;51.332;12.336;2023-01-19T11:58:20;10.30;;;3.77;;
19887;SDS011;10106;51.332;12.336;2023-01-19T12:01:01;5.17;;;3.80;;
19887;SDS011;10106;51.332;12.336;2023-01-19T12:03:43;5.93;;;3.40;;
19887;SDS011;10106;51.332;12.336;2023-01-19T12:06:18;9.50;;;4.43;;
19887;SDS011;10106;51.332;12.336;2023-01-19T12:08:47;7.53;;;4.03;;
19887;SDS011;10106;51.332;12.336;2023-01-19T12:11:40;11.60;;;4.47;;
19887;SDS011;10106;51.332;12.336;2023-01-19T12:14:33;7.60;;;4.40;;
19887;SDS011;10106;51.332;12.336;2023-01-19T12:17:03;6.60;;;3.37;;
19887;SDS011;10106;51.332;12.336;2023-01-19T12:19:50;6.23;;;3.97;;
19887;SDS011;10106;51.332;12.336;2023-01-19T12:22:23;4.33;;;3.10;;
19887;SDS011;10106;51.332;12.336;2023-01-19T12:27:56;6.37;;;3.40;;
19887;SDS011;10106;51.332;12.336;2023-01-19T12:30:24;5.40;;;3.43;;
19887;SDS011;10106;51.332;12.336;2023-01-19T12:33:18;7.00;;;3.30;;
19887;SDS011;10106;51.332;12.336;2023-01-19T12:35:57;6.73;;;4.40;;
19887;SDS011;10106;51.332;12.336;2023-01-19T12:46:35;11.63;;;4.70;;
19887;SDS011;10106;51.332;12.336;2023-01-19T12:49:24;6.30;;;3.10;;
19887;SDS011;10106;51.332;12.336;2023-01-19T13:02:47;5.80;;;2.80;;
19887;SDS011;10106;51.332;12.336;2023-01-19T13:05:15;5.57;;;3.53;;
19887;SDS011;10106;51.332;12.336;2023-01-19T13:13:36;7.57;;;3.13;;
19887;SDS011;10106;51.332;12.336;2023-01-19T13:18:43;8.80;;;4.10;;
19887;SDS011;10106;51.332;12.336;2023-01-19T13:21:30;7.20;;;3.80;;
19887;SDS011;10106;51.332;12.336;2023-01-19T13:24:01;3.57;;;2.80;;
19887;SDS011;10106;51.332;12.336;2023-01-19T13:26:34;8.57;;;4.30;;
19887;SDS011;10106;51.332;12.336;2023-01-19T13:32:14;7.33;;;3.83;;
19887;SDS011;10106;51.332;12.336;2023-01-19T13:34:43;4.13;;;3.70;;
19887;SDS011;10106;51.332;12.336;2023-01-19T13:37:15;6.50;;;3.97;;
19887;SDS011;10106;51.332;12.336;2023-01-19T13:39:43;4.90;;;3.17;;
19887;SDS011;10106;51.332;12.336;2023-01-19T13:42:26;4.70;;;3.43;;
19887;SDS011;10106;51.332;12.336;2023-01-19T13:44:56;8.63;;;5.00;;
19887;SDS011;10106;51.332;12.336;2023-01-19T13:47:26;9.50;;;3.57;;
19887;SDS011;10106;51.332;12.336;2023-01-19T13:50:00;11.30;;;3.80;;
19887;SDS011;10106;51.332;12.336;2023-01-19T13:52:26;9.80;;;3.63;;
19887;SDS011;10106;51.332;12.336;2023-01-19T13:57:29;5.60;;;3.70;;
19887;SDS011;10106;51.332;12.336;2023-01-19T14:03:20;5.07;;;3.43;;
19887;SDS011;10106;51.332;12.336;2023-01-19T14:10:35;4.00;;;3.20;;
19887;SDS011;10106;51.332;12.336;2023-01-19T14:13:27;6.83;;;3.60;;
19887;SDS011;10106;51.332;12.336;2023-01-19T14:15:56;7.13;;;3.17;;
19887;SDS011;10106;51.332;12.336;2023-01-19T14:18:27;3.83;;;3.00;;
19887;SDS011;10106;51.332;12.336;2023-01-19T14:23:42;9.63;;;4.50;;
19887;SDS011;10106;51.332;12.336;2023-01-19T14:31:40;6.20;;;4.23;;
19887;SDS011;10106;51.332;12.336;2023-01-19T14:36:56;5.67;;;3.00;;
19887;SDS011;10106;51.332;12.336;2023-01-19T14:39:24;4.20;;;3.30;;
19887;SDS011;10106;51.332;12.336;2023-01-19T14:41:52;7.87;;;3.30;;
19887;SDS011;10106;51.332;12.336;2023-01-19T14:46:54;11.07;;;4.17;;
19887;SDS011;10106;51.332;12.336;2023-01-19T14:49:29;7.20;;;3.73;;
19887;SDS011;10106;51.332;12.336;2023-01-19T14:51:58;5.70;;;3.37;;
19887;SDS011;10106;51.332;12.336;2023-01-19T14:54:28;6.17;;;3.10;;
19887;SDS011;10106;51.332;12.336;2023-01-19T14:56:59;7.33;;;3.53;;
19887;SDS011;10106;51.332;12.336;2023-01-19T14:59:25;4.93;;;3.53;;
19887;SDS011;10106;51.332;12.336;2023-01-19T15:01:54;7.20;;;4.57;;
19887;SDS011;10106;51.332;12.336;2023-01-19T15:04:20;5.60;;;3.47;;
19887;SDS011;10106;51.332;12.336;2023-01-19T15:06:47;4.37;;;3.50;;
19887;SDS011;10106;51.332;12.336;2023-01-19T15:09:13;5.80;;;3.03;;
19887;SDS011;10106;51.332;12.336;2023-01-19T15:11:40;6.20;;;2.73;;
19887;SDS011;10106;51.332;12.336;2023-01-19T15:14:08;2.90;;;2.27;;
19887;SDS011;10106;51.332;12.336;2023-01-19T15:16:38;7.17;;;4.03;;
19887;SDS011;10106;51.332;12.336;2023-01-19T15:19:04;5.43;;;3.37;;
19887;SDS011;10106;51.332;12.336;2023-01-19T15:21:30;3.83;;;3.17;;
19887;SDS011;10106;51.332;12.336;2023-01-19T15:23:56;2.50;;;2.30;;
19887;SDS011;10106;51.332;12.336;2023-01-19T15:26:23;3.90;;;2.67;;
19887;SDS011;10106;51.332;12.336;2023-01-19T15:28:50;5.23;;;3.77;;
19887;SDS011;10106;51.332;12.336;2023-01-19T15:31:17;3.97;;;3.03;;
19887;SDS011;10106;51.332;12.336;2023-01-19T15:33:44;10.80;;;4.10;;
19887;SDS011;10106;51.332;12.336;2023-01-19T15:36:13;5.57;;;3.43;;
19887;SDS011;10106;51.332;12.336;2023-01-19T15:38:40;5.43;;;3.60;;
19887;SDS011;10106;51.332;12.336;2023-01-19T15:41:20;6.20;;;3.17;;
19887;SDS011;10106;51.332;12.336;2023-01-19T15:43:51;4.00;;;2.87;;
19887;SDS011;10106;51.332;12.336;2023-01-19T15:46:17;7.30;;;3.73;;
19887;SDS011;10106;51.332;12.336;2023-01-19T15:48:45;5.10;;;3.60;;
19887;SDS011;10106;51.332;12.336;2023-01-19T15:51:11;5.50;;;2.27;;
19887;SDS011;10106;51.332;12.336;2023-01-19T15:53:38;6.13;;;4.10;;
19887;SDS011;10106;51.332;12.336;2023-01-19T15:56:05;7.57;;;3.70;;
19887;SDS011;10106;51.332;12.336;2023-01-19T15:58:50;8.10;;;3.57;;
19887;SDS011;10106;51.332;12.336;2023-01-19T16:01:21;5.37;;;3.83;;
19887;SDS011;10106;51.332;12.336;2023-01-19T16:03:48;5.03;;;3.53;;
19887;SDS011;10106;51.332;12.336;2023-01-19T16:06:14;6.13;;;3.80;;
19887;SDS011;10106;51.332;12.336;2023-01-19T16:08:41;5.00;;;3.33;;
19887;SDS011;10106;51.332;12.336;2023-01-19T16:11:08;11.07;;;4.93;;
19887;SDS011;10106;51.332;12.336;2023-01-19T16:13:36;7.72;;;5.00;;
19887;SDS011;10106;51.332;12.336;2023-01-19T16:16:06;11.47;;;5.57;;
19887;SDS011;10106;51.332;12.336;2023-01-19T16:18:36;7.27;;;4.43;;
19887;SDS011;10106;51.332;12.336;2023-01-19T16:21:02;11.70;;;4.80;;
19887;SDS011;10106;51.332;12.336;2023-01-19T16:23:28;15.50;;;7.43;;
19887;SDS011;10106;51.332;12.336;2023-01-19T16:25:57;10.23;;;7.10;;
19887;SDS011;10106;51.332;12.336;2023-01-19T16:28:25;7.30;;;4.70;;